HVK374 EDDS-LTFM
Flight info
| Callsign | HVK374 |
|---|---|
| Flight time | N/A |
| Altitude | 22000 |
| Route | TAGIK4B/25 TAGIK Z3 ABUMO N850 GISEM Z505 ARPEG Z850 ADEMI T854 DOMUX DOMUX1A |
| Aircraft | A400/H-SDE2E3FGHIJ4J5M1RWXY/LB1D1 |
Departure
| Time | N/A |
|---|---|
| Airport | Stuttgart Airport (EDDS) |
Arrival
| Time | 2026-05-04 21:28 |
|---|---|
| Airport | İstanbul Airport (LTFM) |
| Time | Latitude | Longitude | Altitude | Speed | Heading |
|---|---|---|---|---|---|
| 2026-05-04 21:23 | 41.06665 | 28.71092 | 3044 ft | 214 kts | 359° |
| 2026-05-04 21:23 | 41.08157 | 28.71080 | 3045 ft | 214 kts | 359° |
| 2026-05-04 21:24 | 41.09652 | 28.71061 | 3044 ft | 214 kts | 359° |
| 2026-05-04 21:24 | 41.11103 | 28.71039 | 3035 ft | 199 kts | 359° |
| 2026-05-04 21:24 | 41.12427 | 28.71016 | 3035 ft | 189 kts | 359° |
| 2026-05-04 21:24 | 41.13727 | 28.70992 | 3040 ft | 186 kts | 358° |
| 2026-05-04 21:25 | 41.15018 | 28.70967 | 2936 ft | 188 kts | 358° |
| 2026-05-04 21:25 | 41.16335 | 28.70943 | 2357 ft | 187 kts | 358° |
| 2026-05-04 21:25 | 41.17601 | 28.70917 | 2054 ft | 182 kts | 358° |
| 2026-05-04 21:25 | 41.18863 | 28.70892 | 1839 ft | 181 kts | 358° |
| 2026-05-04 21:26 | 41.20122 | 28.70868 | 1610 ft | 180 kts | 358° |
| 2026-05-04 21:26 | 41.21373 | 28.70843 | 1366 ft | 179 kts | 358° |
| 2026-05-04 21:26 | 41.22618 | 28.70818 | 1117 ft | 178 kts | 358° |
| 2026-05-04 21:26 | 41.23858 | 28.70794 | 889 ft | 178 kts | 358° |
| 2026-05-04 21:27 | 41.25098 | 28.70769 | 655 ft | 177 kts | 358° |
| 2026-05-04 21:27 | 41.26312 | 28.70746 | 378 ft | 166 kts | 359° |
| 2026-05-04 21:27 | 41.27315 | 28.70709 | 200 ft | 129 kts | 359° |
| 2026-05-04 21:27 | 41.28098 | 28.70694 | 195 ft | 100 kts | 358° |
| 2026-05-04 21:28 | 41.28673 | 28.70689 | 185 ft | 62 kts | 360° |
| 2026-05-04 21:28 | 41.29011 | 28.70779 | 193 ft | 35 kts | 27° |
| 2026-05-04 21:28 | 41.29099 | 28.70844 | 195 ft | 13 kts | 29° |
| 2026-05-04 21:28 | 41.29248 | 28.70952 | 188 ft | 15 kts | 28° |